Time;durP1;ratioP1;P1;durP2;ratioP2;P2;SDS_P1;SDS_P2;PMS_P1;PMS_P2;Temp;Humidity;BMP_temperature;BMP_pressure;BME280_temperature;BME280_humidity;BME280_pressure;Samples;Min_cycle;Max_cycle;Signal;HPM_P1;HPM_P2
2022/01/17 00:01:29;;;;;;;;;38.50;30.75;;;;;9.08;74.18;103176.09;5097767;27;45491;-74
2022/01/17 00:03:54;;;;;;;;;35.00;27.50;;;;;9.08;74.28;103173.47;5097493;27;45437;-72
2022/01/17 00:06:19;;;;;;;;;41.00;30.00;;;;;9.09;74.22;103175.28;5098722;27;45157;-72
2022/01/17 00:08:46;;;;;;;;;38.75;29.25;;;;;9.10;74.30;103178.81;5098259;27;58880;-73
2022/01/17 00:11:15;;;;;;;;;33.75;25.50;;;;;9.11;74.40;103178.94;5098409;27;45509;-74
2022/01/17 00:13:40;;;;;;;;;34.50;29.50;;;;;9.10;74.26;103179.72;5098348;27;45869;-72
2022/01/17 00:16:13;;;;;;;;;38.00;31.25;;;;;9.11;74.32;103180.66;5093799;27;45586;-72
2022/01/17 00:21:04;;;;;;;;;34.00;28.50;;;;;9.13;74.39;103174.63;5098948;27;45447;-73
2022/01/17 00:23:30;;;;;;;;;36.00;29.25;;;;;9.12;74.35;103171.94;5102011;27;45394;-72
2022/01/17 00:25:55;;;;;;;;;32.75;28.25;;;;;9.14;74.16;103165.91;5101790;27;45547;-73
2022/01/17 00:28:20;;;;;;;;;32.50;27.25;;;;;9.16;74.22;103165.97;5090865;27;49707;-72
2022/01/17 00:30:46;;;;;;;;;32.25;29.50;;;;;9.16;74.04;103161.63;5098514;27;53604;-74
2022/01/17 00:33:11;;;;;;;;;31.00;26.75;;;;;9.11;74.30;103160.47;5077226;27;45461;-74
2022/01/17 00:35:37;;;;;;;;;39.00;29.75;;;;;9.14;74.29;103170.25;5098188;27;45445;-72
2022/01/17 00:38:02;;;;;;;;;34.00;26.00;;;;;9.16;73.95;103169.53;5094325;27;46446;-72
2022/01/17 00:40:28;;;;;;;;;29.00;25.00;;;;;9.14;74.09;103168.53;5098535;27;45171;-73
2022/01/17 00:42:54;;;;;;;;;38.00;28.75;;;;;9.15;73.96;103174.72;5094493;27;45137;-72
2022/01/17 00:45:26;;;;;;;;;34.00;29.25;;;;;9.16;74.22;103176.50;5096998;27;45188;-75
2022/01/17 00:47:51;;;;;;;;;32.75;28.00;;;;;9.12;74.22;103177.19;5097714;27;46639;-72
2022/01/17 00:50:17;;;;;;;;;26.50;22.50;;;;;9.16;74.43;103188.00;5097875;27;45355;-72
2022/01/17 00:52:42;;;;;;;;;32.50;28.00;;;;;9.16;74.25;103180.09;5085703;27;57533;-72
2022/01/17 00:55:08;;;;;;;;;33.75;29.75;;;;;9.16;74.08;103184.41;5078353;28;53933;-72
2022/01/17 00:57:33;;;;;;;;;31.00;28.75;;;;;9.16;74.41;103185.34;5091842;27;47302;-73
2022/01/17 00:59:59;;;;;;;;;36.75;30.00;;;;;9.17;74.44;103181.88;5091298;27;50746;-74
2022/01/17 01:02:24;;;;;;;;;36.25;27.75;;;;;9.17;74.03;103175.72;5094864;27;54855;-73
2022/01/17 01:04:49;;;;;;;;;36.75;26.50;;;;;9.18;74.31;103177.53;5098641;27;45166;-73
2022/01/17 01:07:15;;;;;;;;;35.75;30.75;;;;;9.19;74.52;103176.69;5094770;27;49129;-73
2022/01/17 01:09:52;;;;;;;;;42.75;35.25;;;;;9.18;74.19;103173.16;5097876;27;51586;-73
2022/01/17 01:12:18;;;;;;;;;32.00;32.00;;;;;9.18;74.28;103170.53;5097329;27;45290;-73
2022/01/17 01:14:43;;;;;;;;;38.25;30.50;;;;;9.20;74.34;103173.22;5097563;27;47149;-74
2022/01/17 01:17:19;;;;;;;;;33.50;28.00;;;;;9.20;74.40;103173.22;5097175;27;45413;-73
2022/01/17 01:19:45;;;;;;;;;30.25;28.00;;;;;9.16;74.44;103164.28;5090536;27;45458;-74
2022/01/17 01:27:54;;;;;;;;;38.75;32.00;;;;;9.19;74.25;103163.50;5086659;27;45805;-72
2022/01/17 01:30:22;;;;;;;;;40.00;30.75;;;;;9.22;74.29;103168.97;5094119;27;45276;-72
2022/01/17 01:32:54;;;;;;;;;34.00;24.00;;;;;9.21;74.23;103172.41;5088280;27;45200;-74
2022/01/17 01:35:22;;;;;;;;;29.00;27.25;;;;;9.23;74.28;103168.13;5094253;27;45168;-72
2022/01/17 01:37:48;;;;;;;;;30.00;28.75;;;;;9.24;74.04;103171.69;5096370;27;47047;-72
2022/01/17 01:40:16;;;;;;;;;33.75;28.50;;;;;9.25;74.10;103173.47;5097631;27;45382;-74
2022/01/17 01:42:42;;;;;;;;;39.25;30.75;;;;;9.20;74.23;103162.69;5095756;27;45406;-73
2022/01/17 01:45:08;;;;;;;;;29.25;23.75;;;;;9.25;74.31;103179.66;5097893;27;45640;-73
2022/01/17 01:47:34;;;;;;;;;36.50;30.00;;;;;9.24;74.23;103180.47;5096144;27;46456;-72
2022/01/17 01:49:59;;;;;;;;;31.25;26.50;;;;;9.25;74.19;103181.38;5094690;27;49975;-72
2022/01/17 01:52:25;;;;;;;;;33.25;29.00;;;;;9.23;74.15;103183.03;5089367;27;45438;-73
2022/01/17 01:54:50;;;;;;;;;30.75;28.00;;;;;9.25;74.29;103187.56;5079109;27;45451;-73
2022/01/17 01:57:16;;;;;;;;;31.00;26.00;;;;;9.26;74.25;103191.09;5083549;27;46260;-73
2022/01/17 01:59:41;;;;;;;;;32.75;30.00;;;;;9.28;74.25;103200.94;5059437;28;45443;-73
2022/01/17 02:02:06;;;;;;;;;36.00;25.75;;;;;9.28;74.22;103198.28;5097438;27;45823;-72
2022/01/17 02:04:32;;;;;;;;;38.75;28.50;;;;;9.29;74.27;103193.91;5085905;27;45362;-72
2022/01/17 02:06:57;;;;;;;;;26.50;24.25;;;;;9.30;74.40;103199.25;5093517;27;45614;-73
2022/01/17 02:09:23;;;;;;;;;33.25;28.75;;;;;9.30;74.18;103207.19;5097141;27;45280;-73
2022/01/17 02:11:49;;;;;;;;;29.00;25.00;;;;;9.29;74.18;103196.56;5096747;27;46036;-73
2022/01/17 02:14:14;;;;;;;;;34.75;30.00;;;;;9.31;74.09;103194.91;5093218;27;45505;-73
2022/01/17 02:16:41;;;;;;;;;34.50;34.25;;;;;9.31;74.19;103195.81;5095841;27;62688;-73
2022/01/17 02:19:07;;;;;;;;;36.00;33.50;;;;;9.29;74.03;103196.56;5096946;27;45377;-73
2022/01/17 02:21:46;;;;;;;;;33.25;27.75;;;;;9.30;74.30;103201.91;5089051;27;45334;-73
2022/01/17 02:24:14;;;;;;;;;35.75;30.50;;;;;9.31;73.83;103190.53;5096465;27;45345;-74
2022/01/17 02:26:39;;;;;;;;;40.25;32.50;;;;;9.31;73.86;103187.88;5078610;27;46639;-72
2022/01/17 02:29:06;;;;;;;;;37.75;32.50;;;;;9.28;73.89;103178.94;5096009;27;45325;-72
2022/01/17 02:31:31;;;;;;;;;36.50;32.25;;;;;9.34;73.92;103187.16;5094806;27;45291;-72
2022/01/17 02:33:57;;;;;;;;;36.50;31.75;;;;;9.35;73.81;103178.44;5078678;27;45473;-72
2022/01/17 02:36:22;;;;;;;;;33.00;30.50;;;;;9.32;73.82;103165.06;5096313;27;45972;-74
2022/01/17 02:38:48;;;;;;;;;38.00;31.00;;;;;9.34;73.84;103171.34;5096612;27;45197;-72
2022/01/17 02:41:13;;;;;;;;;33.75;30.50;;;;;9.30;74.10;103162.34;5096738;27;45489;-72
2022/01/17 02:43:38;;;;;;;;;33.25;31.00;;;;;9.33;73.74;103175.72;5096457;27;45770;-73
2022/01/17 02:48:32;;;;;;;;;39.75;28.75;;;;;9.32;73.77;103172.97;5092393;27;45490;-72
2022/01/17 02:50:58;;;;;;;;;41.25;35.75;;;;;9.32;74.08;103170.34;5091802;27;46009;-72
2022/01/17 02:53:24;;;;;;;;;35.75;29.00;;;;;9.31;73.82;103172.06;5096871;27;45473;-73
2022/01/17 02:55:50;;;;;;;;;45.50;32.50;;;;;9.28;73.96;103171.94;5095193;27;46563;-72
2022/01/17 02:58:16;;;;;;;;;37.00;31.25;;;;;9.28;73.59;103171.94;5091931;27;45388;-72
2022/01/17 03:00:41;;;;;;;;;32.75;25.25;;;;;9.26;73.91;103172.66;5097579;27;45531;-74
2022/01/17 03:03:12;;;;;;;;;43.50;30.25;;;;;9.27;73.89;103182.38;5092541;27;50192;-72
2022/01/17 03:05:38;;;;;;;;;38.75;30.00;;;;;9.27;73.79;103185.00;5065164;27;46755;-73
2022/01/17 03:08:03;;;;;;;;;44.75;31.50;;;;;9.27;73.75;103190.28;5064572;27;45393;-72
2022/01/17 03:10:39;;;;;;;;;34.00;27.50;;;;;9.26;73.84;103186.72;5096461;27;45394;-72
2022/01/17 03:13:31;;;;;;;;;37.50;31.25;;;;;9.25;74.10;103187.56;5095864;27;45472;-73
2022/01/17 03:15:58;;;;;;;;;40.25;29.00;;;;;9.20;73.97;103181.13;5098820;27;47339;-72
2022/01/17 03:18:26;;;;;;;;;30.50;26.25;;;;;9.26;74.28;103206.91;5098998;27;45333;-73
2022/01/17 03:20:52;;;;;;;;;43.75;36.25;;;;;9.25;74.09;103200.75;5094727;27;45373;-73
2022/01/17 03:23:17;;;;;;;;;39.50;33.75;;;;;9.26;74.14;103206.91;5080029;27;45577;-73
2022/01/17 03:25:43;;;;;;;;;39.75;32.25;;;;;9.27;74.06;103204.38;5098243;27;55725;-72
2022/01/17 03:28:08;;;;;;;;;35.50;32.25;;;;;9.27;74.11;103200.81;5099362;27;45464;-73
2022/01/17 03:30:34;;;;;;;;;37.75;31.50;;;;;9.29;74.08;103205.38;5095835;27;45476;-73
2022/01/17 03:33:00;;;;;;;;;34.50;32.25;;;;;9.26;74.49;103199.00;5099694;27;48659;-72
2022/01/17 03:35:26;;;;;;;;;40.25;33.50;;;;;9.29;73.88;103215.91;5099943;27;47082;-72
2022/01/17 03:37:51;;;;;;;;;38.50;34.25;;;;;9.31;74.41;103227.44;5100120;27;45374;-72
2022/01/17 03:40:16;;;;;;;;;40.25;31.00;;;;;9.30;74.21;103211.53;5096713;27;49422;-73
2022/01/17 03:42:42;;;;;;;;;46.00;35.25;;;;;9.32;74.01;103212.53;5099539;27;45389;-73
2022/01/17 03:45:08;;;;;;;;;36.50;33.50;;;;;9.30;73.96;103215.09;5081155;27;45632;-73
2022/01/17 03:47:38;;;;;;;;;33.00;25.25;;;;;9.25;73.99;103207.75;5090931;27;45604;-73
2022/01/17 03:50:04;;;;;;;;;37.75;28.25;;;;;9.28;74.04;103215.84;5095967;27;45364;-73
2022/01/17 03:52:30;;;;;;;;;44.00;32.25;;;;;9.28;74.31;103218.47;5097054;27;45204;-73
2022/01/17 03:54:55;;;;;;;;;35.00;31.25;;;;;9.28;73.99;103221.13;5098086;27;52780;-74
2022/01/17 03:57:20;;;;;;;;;40.75;35.00;;;;;9.29;74.33;103223.81;5095564;27;45524;-72
2022/01/17 03:59:46;;;;;;;;;39.25;33.00;;;;;9.30;74.22;103236.19;5080379;27;56103;-74
2022/01/17 04:02:11;;;;;;;;;44.00;36.25;;;;;9.31;74.32;103240.63;5097509;27;54030;-73
2022/01/17 04:04:37;;;;;;;;;41.00;36.25;;;;;9.29;74.12;103234.38;5093636;27;62100;-73
2022/01/17 04:07:03;;;;;;;;;43.00;36.25;;;;;9.30;73.92;103238.81;5099970;27;45168;-72
2022/01/17 04:09:28;;;;;;;;;39.50;29.25;;;;;9.31;74.09;103237.06;5099050;27;45500;-73
2022/01/17 04:11:54;;;;;;;;;41.75;33.00;;;;;9.31;74.03;103239.72;5094684;27;54420;-72
2022/01/17 04:14:19;;;;;;;;;38.25;31.75;;;;;9.31;74.18;103242.34;5079689;27;57835;-73
2022/01/17 04:16:45;;;;;;;;;47.50;33.00;;;;;9.31;74.20;103250.25;5098609;27;45538;-72
2022/01/17 04:19:11;;;;;;;;;42.75;33.00;;;;;9.30;74.20;103254.63;5095635;27;48674;-73
2022/01/17 04:21:37;;;;;;;;;40.00;31.25;;;;;9.31;74.16;103256.44;5098889;27;45444;-72
2022/01/17 04:24:02;;;;;;;;;40.00;33.00;;;;;9.27;73.75;103248.28;5080057;27;47453;-74
2022/01/17 04:26:28;;;;;;;;;39.50;30.50;;;;;9.31;74.17;103264.34;5095713;27;45528;-72
2022/01/17 04:28:53;;;;;;;;;44.50;33.25;;;;;9.31;74.02;103264.34;5097816;27;57392;-73
2022/01/17 04:31:18;;;;;;;;;34.75;30.50;;;;;9.26;74.17;103239.47;5098608;27;45350;-73
2022/01/17 04:33:44;;;;;;;;;39.50;32.75;;;;;9.26;74.05;103242.09;5096047;27;45516;-72
2022/01/17 04:36:09;;;;;;;;;33.75;31.25;;;;;9.26;74.15;103242.09;5096735;27;53487;-73
2022/01/17 04:38:35;;;;;;;;;45.00;37.00;;;;;9.22;74.19;103234.88;5099208;27;54482;-73
2022/01/17 04:41:04;;;;;;;;;42.00;35.50;;;;;9.25;74.08;103244.66;5099114;27;45528;-74
2022/01/17 04:45:07;;;;;;;;;51.75;39.25;;;;;9.23;74.31;103241.94;5094689;27;47640;-72
2022/01/17 04:46:15;;;;;;;;;37.25;33.75;;;;;9.24;74.45;103232.31;5085909;27;45272;-72
2022/01/17 04:48:40;;;;;;;;;42.00;35.50;;;;;9.24;74.03;103245.47;5097705;27;53783;-72
2022/01/17 04:51:05;;;;;;;;;41.50;34.75;;;;;9.18;74.13;103239.06;5097121;27;47072;-73
2022/01/17 04:53:31;;;;;;;;;44.50;37.75;;;;;9.15;74.05;103233.59;5098054;27;46583;-73
2022/01/17 04:55:57;;;;;;;;;48.50;38.00;;;;;9.14;74.51;103233.53;5097907;27;45404;-73
2022/01/17 04:58:22;;;;;;;;;42.50;36.00;;;;;9.13;74.42;103247.53;5079540;27;45348;-73
2022/01/17 05:00:48;;;;;;;;;47.25;34.75;;;;;9.10;74.13;103245.63;5098515;27;45350;-73
2022/01/17 05:03:14;;;;;;;;;37.50;33.00;;;;;9.13;74.09;103256.34;5094447;27;59917;-72
2022/01/17 05:05:39;;;;;;;;;39.25;33.00;;;;;9.05;74.19;103238.28;5096917;27;45576;-74
2022/01/17 05:08:05;;;;;;;;;40.75;34.25;;;;;9.04;74.23;103239.09;5098039;27;56493;-73
2022/01/17 05:10:30;;;;;;;;;49.00;34.50;;;;;9.06;74.28;103253.28;5097370;27;45688;-74
2022/01/17 05:12:55;;;;;;;;;36.75;31.25;;;;;9.04;73.98;103245.28;5092966;27;46656;-75
2022/01/17 05:18:11;;;;;;;;;38.50;34.50;;;;;8.98;74.01;103262.47;5098376;27;45616;-73
2022/01/17 05:20:38;;;;;;;;;36.50;29.50;;;;;8.95;74.05;103264.91;5090514;27;46558;-73
2022/01/17 05:23:03;;;;;;;;;35.50;29.00;;;;;8.93;74.15;103264.84;5061832;28;46448;-73
2022/01/17 05:25:29;;;;;;;;;34.50;30.75;;;;;8.91;73.84;103262.13;5056535;28;45444;-74
2022/01/17 05:27:54;;;;;;;;;31.50;25.50;;;;;8.85;73.98;103259.16;5056663;28;45908;-73
2022/01/17 05:30:20;;;;;;;;;34.25;31.00;;;;;8.83;73.93;103259.88;5047882;28;56686;-73
2022/01/17 05:32:46;;;;;;;;;35.00;31.25;;;;;8.82;73.79;103265.97;5056066;28;46701;-73
2022/01/17 05:35:12;;;;;;;;;40.25;31.75;;;;;8.77;73.60;103256.88;5054418;28;45320;-73
2022/01/17 05:37:37;;;;;;;;;31.25;27.50;;;;;8.80;73.82;103271.16;5056754;28;45380;-73
2022/01/17 05:40:04;;;;;;;;;29.25;27.50;;;;;8.80;74.10;103265.00;5049885;28;45621;-74
2022/01/17 05:42:30;;;;;;;;;39.75;32.25;;;;;8.78;74.17;103278.03;5049273;28;46402;-75
2022/01/17 05:44:55;;;;;;;;;40.25;30.50;;;;;8.78;73.77;103271.88;5057226;28;45343;-73
2022/01/17 05:47:20;;;;;;;;;40.25;33.25;;;;;8.75;73.69;103283.16;5057112;28;45885;-75
2022/01/17 05:49:46;;;;;;;;;45.00;35.00;;;;;8.69;73.81;103287.16;5053607;28;45416;-74
2022/01/17 05:52:11;;;;;;;;;38.50;35.00;;;;;8.61;73.76;103284.97;5047488;28;46693;-74
2022/01/17 05:54:37;;;;;;;;;38.75;31.00;;;;;8.59;73.86;103293.63;5055222;28;45312;-74
2022/01/17 05:57:03;;;;;;;;;35.50;31.00;;;;;8.53;73.91;103285.38;5055020;28;45495;-74
2022/01/17 05:59:28;;;;;;;;;45.25;37.75;;;;;8.49;73.92;103293.91;5050697;28;45216;-74
2022/01/17 06:01:54;;;;;;;;;38.00;32.50;;;;;8.44;73.80;103300.63;5056059;28;45616;-74
2022/01/17 06:04:20;;;;;;;;;39.00;33.75;;;;;8.38;73.74;103281.00;5052648;28;45264;-74
2022/01/17 06:06:46;;;;;;;;;38.25;31.50;;;;;8.29;73.77;103282.13;5056571;28;45367;-75
2022/01/17 06:09:11;;;;;;;;;38.50;33.50;;;;;8.26;73.97;103277.63;5052612;28;45629;-74
2022/01/17 06:11:37;;;;;;;;;19.50;11.25;;;;;8.22;73.80;103288.78;5049132;28;63559;-75
2022/01/17 06:14:03;;;;;;;;;40.25;31.75;;;;;8.13;73.86;103283.84;5055686;28;47212;-74
2022/01/17 06:16:30;;;;;;;;;36.00;33.00;;;;;8.09;73.92;103276.56;5056217;28;45585;-76
2022/01/17 06:18:55;;;;;;;;;41.75;31.75;;;;;8.05;73.72;103276.34;5055123;28;45526;-75
2022/01/17 06:21:21;;;;;;;;;35.25;32.00;;;;;8.01;73.85;103284.84;5052618;28;46491;-75
2022/01/17 06:23:46;;;;;;;;;35.00;32.50;;;;;8.02;73.68;103295.44;5066201;28;45582;-74
2022/01/17 06:26:11;;;;;;;;;32.25;29.00;;;;;7.98;73.56;103300.44;5069803;27;45977;-74
2022/01/17 06:28:37;;;;;;;;;40.00;32.25;;;;;7.93;73.71;103302.78;5071776;28;54631;-74
2022/01/17 06:31:02;;;;;;;;;30.25;29.00;;;;;7.84;73.54;103303.13;5066342;28;48876;-74
2022/01/17 06:33:27;;;;;;;;;41.25;30.25;;;;;7.85;73.59;103326.00;5074714;28;60485;-75
2022/01/17 06:35:53;;;;;;;;;32.25;31.00;;;;;7.81;73.72;103331.88;5073246;27;51594;-75
2022/01/17 06:38:18;;;;;;;;;41.75;30.25;;;;;7.78;73.56;103328.16;5076172;28;45351;-75
2022/01/17 06:40:44;;;;;;;;;37.75;29.00;;;;;7.75;73.47;103339.38;5074235;27;53899;-75
2022/01/17 06:43:10;;;;;;;;;37.50;30.00;;;;;7.73;73.65;103353.25;5072035;27;45404;-75
2022/01/17 06:45:36;;;;;;;;;39.00;32.50;;;;;7.69;73.64;103346.88;5066925;27;45801;-74
2022/01/17 06:48:02;;;;;;;;;38.00;28.25;;;;;7.71;73.68;103366.28;5073744;28;45503;-73
2022/01/17 06:50:28;;;;;;;;;36.00;31.50;;;;;7.74;73.84;103366.50;5075182;27;46511;-74
2022/01/17 06:52:53;;;;;;;;;39.00;31.75;;;;;7.77;73.83;103371.94;5076497;27;45442;-75
2022/01/17 06:55:18;;;;;;;;;36.75;30.50;;;;;7.79;74.03;103366.78;5070743;28;54303;-73
2022/01/17 06:57:44;;;;;;;;;39.25;31.25;;;;;7.81;73.91;103355.53;5073081;27;45808;-74
2022/01/17 07:00:10;;;;;;;;;37.00;32.50;;;;;7.77;73.79;103336.84;5073056;27;45847;-75
2022/01/17 07:02:35;;;;;;;;;43.00;35.00;;;;;7.80;73.78;103334.41;5075061;27;45349;-74
2022/01/17 07:05:01;;;;;;;;;42.00;35.25;;;;;7.84;73.83;103349.56;5073923;27;45488;-75
2022/01/17 07:07:26;;;;;;;;;40.75;33.25;;;;;7.84;73.74;103353.13;5074167;28;45946;-74
2022/01/17 07:09:52;;;;;;;;;41.75;36.50;;;;;7.86;73.69;103350.56;5074409;28;46277;-74
2022/01/17 07:12:17;;;;;;;;;42.25;32.00;;;;;7.84;73.64;103350.47;5072426;28;51723;-75
2022/01/17 07:14:42;;;;;;;;;45.00;38.00;;;;;7.83;73.54;103376.69;5075004;28;50665;-75
2022/01/17 07:17:09;;;;;;;;;40.25;34.25;;;;;7.80;73.64;103380.03;5074564;28;52549;-75
2022/01/17 07:19:34;;;;;;;;;47.50;37.50;;;;;7.73;73.44;103390.97;5067699;28;46709;-75
2022/01/17 07:22:00;;;;;;;;;49.25;38.00;;;;;7.69;73.92;103415.25;5071570;27;45807;-78
2022/01/17 07:24:25;;;;;;;;;45.50;37.50;;;;;7.60;73.79;103418.19;5094573;27;45629;-75
2022/01/17 07:26:51;;;;;;;;;42.25;36.25;;;;;7.54;74.56;103422.16;5094667;27;47589;-75
2022/01/17 07:29:16;;;;;;;;;49.25;37.00;;;;;7.46;74.43;103408.53;5059155;27;47848;-76
2022/01/17 07:31:41;;;;;;;;;40.50;32.00;;;;;7.42;75.84;103387.19;5093917;27;45373;-74
2022/01/17 07:34:07;;;;;;;;;42.00;34.00;;;;;7.35;75.23;103385.91;5093088;27;52846;-75
2022/01/17 07:36:32;;;;;;;;;57.25;42.00;;;;;7.29;76.00;103383.75;5069222;27;46041;-75
2022/01/17 07:38:58;;;;;;;;;34.00;21.50;;;;;7.28;75.39;103388.91;5074152;27;62532;-75
2022/01/17 07:41:23;;;;;;;;;33.25;30.25;;;;;7.23;75.53;103390.31;5091477;27;45533;-76
2022/01/17 07:43:50;;;;;;;;;40.00;34.75;;;;;7.17;75.84;103372.44;5075200;27;45536;-75
2022/01/17 07:46:24;;;;;;;;;46.00;38.00;;;;;7.14;76.02;103382.78;5101938;27;45652;-76
2022/01/17 07:48:58;;;;;;;;;40.75;38.00;;;;;7.11;75.67;103372.03;5095935;27;46491;-76
2022/01/17 07:51:25;;;;;;;;;45.25;39.25;;;;;7.00;76.56;103365.19;5074748;28;45615;-75
2022/01/17 07:53:50;;;;;;;;;42.00;36.50;;;;;7.01;75.93;103380.13;5096628;27;45334;-75
2022/01/17 07:56:16;;;;;;;;;49.50;38.75;;;;;7.03;75.54;103405.69;5098384;27;51471;-74
2022/01/17 07:58:41;;;;;;;;;44.50;36.75;;;;;7.01;75.10;103396.78;5094364;27;45641;-75
2022/01/17 08:01:07;;;;;;;;;48.00;39.25;;;;;7.04;75.23;103410.16;5094989;27;45445;-74
2022/01/17 08:03:33;;;;;;;;;44.25;38.50;;;;;7.07;75.23;103406.78;5098246;27;45484;-75
2022/01/17 08:05:59;;;;;;;;;44.50;33.75;;;;;7.10;74.96;103412.28;5097481;27;45407;-75
2022/01/17 08:08:24;;;;;;;;;53.00;40.25;;;;;7.12;75.16;103415.00;5098009;27;46224;-75
2022/01/17 08:10:50;;;;;;;;;45.50;39.75;;;;;7.06;75.18;103389.22;5095321;27;61837;-74
2022/01/17 08:13:15;;;;;;;;;43.75;31.75;;;;;7.14;75.21;103403.78;5098310;27;45637;-74
2022/01/17 08:15:40;;;;;;;;;44.00;34.00;;;;;7.19;74.92;103405.00;5097548;27;45611;-73
2022/01/17 08:18:06;;;;;;;;;46.25;36.00;;;;;7.22;74.98;103412.16;5096452;27;56592;-74
2022/01/17 08:20:31;;;;;;;;;38.75;32.00;;;;;7.24;74.85;103410.53;5096384;27;45433;-74
2022/01/17 08:22:57;;;;;;;;;33.00;30.50;;;;;7.26;74.92;103422.06;5094862;27;58177;-73
2022/01/17 08:25:23;;;;;;;;;45.00;33.50;;;;;7.28;74.70;103423.06;5094858;27;46706;-74
2022/01/17 08:27:48;;;;;;;;;36.25;31.50;;;;;7.31;74.55;103433.81;5096510;27;47615;-74
2022/01/17 08:30:14;;;;;;;;;41.25;34.00;;;;;7.28;74.75;103431.88;5095626;27;45453;-74
2022/01/17 08:32:46;;;;;;;;;46.75;33.00;;;;;7.38;75.01;103419.34;5096400;27;45503;-75
2022/01/17 08:35:11;;;;;;;;;44.75;35.50;;;;;7.41;74.99;103420.47;5097297;27;45330;-75
2022/01/17 08:37:37;;;;;;;;;55.75;32.50;;;;;7.48;75.10;103420.03;5097400;27;45631;-74
2022/01/17 08:40:02;;;;;;;;;42.50;36.00;;;;;7.56;74.93;103438.94;5096481;27;62555;-74
2022/01/17 08:42:28;;;;;;;;;40.75;34.75;;;;;7.59;75.12;103441.75;5095245;27;45559;-75
2022/01/17 08:44:55;;;;;;;;;48.50;37.25;;;;;7.72;75.05;103447.00;5076261;27;45330;-74
2022/01/17 08:47:20;;;;;;;;;35.25;32.50;;;;;7.80;75.30;103448.41;5095224;27;46862;-74
2022/01/17 08:49:48;;;;;;;;;43.25;34.50;;;;;7.83;75.13;103426.69;5096107;27;45449;-74
2022/01/17 08:52:15;;;;;;;;;48.50;39.75;;;;;8.05;75.03;103442.09;5096814;27;45334;-74
2022/01/17 08:54:40;;;;;;;;;55.50;37.75;;;;;8.12;74.94;103447.81;5093577;27;45689;-74
2022/01/17 08:57:06;;;;;;;;;48.00;29.75;;;;;8.28;75.01;103448.78;5073611;27;46497;-74
2022/01/17 08:59:31;;;;;;;;;38.25;34.00;;;;;8.38;74.77;103446.84;5092695;27;45416;-74
2022/01/17 09:01:57;;;;;;;;;51.50;35.00;;;;;8.47;74.62;103453.47;5087479;27;45662;-74
2022/01/17 09:04:23;;;;;;;;;45.00;33.75;;;;;8.55;74.15;103439.09;5095131;27;45538;-74
2022/01/17 09:06:48;;;;;;;;;35.25;28.50;;;;;8.60;74.27;103438.53;5094917;27;63606;-75
2022/01/17 09:09:14;;;;;;;;;37.00;30.75;;;;;8.74;74.06;103444.66;5095467;27;45523;-75
2022/01/17 09:11:39;;;;;;;;;36.25;32.50;;;;;8.78;74.08;103443.09;5094085;27;45543;-75
2022/01/17 09:14:06;;;;;;;;;36.50;33.25;;;;;8.91;73.94;103466.75;5096518;27;45607;-74
2022/01/17 09:16:31;;;;;;;;;50.25;41.50;;;;;8.99;73.79;103475.09;5095433;27;53620;-74
2022/01/17 09:18:57;;;;;;;;;52.50;36.00;;;;;9.04;73.41;103474.56;5095024;27;48694;-74
2022/01/17 09:21:22;;;;;;;;;37.75;33.75;;;;;9.11;73.56;103478.50;5093172;27;55529;-76
2022/01/17 09:23:49;;;;;;;;;46.50;32.50;;;;;9.18;73.13;103478.94;5209359;22;45976;-77
2022/01/17 09:26:15;;;;;;;;;41.75;33.00;;;;;9.18;73.14;103475.38;5115526;27;46976;-76
2022/01/17 09:28:41;;;;;;;;;46.75;31.25;;;;;9.29;73.03;103483.91;5108183;27;45592;-75
2022/01/17 09:31:06;;;;;;;;;37.00;31.75;;;;;9.33;72.97;103493.84;5096418;27;45727;-76
2022/01/17 09:33:34;;;;;;;;;34.50;29.25;;;;;9.37;72.64;103495.81;5116979;27;45401;-76
2022/01/17 09:35:59;;;;;;;;;38.00;28.75;;;;;9.41;72.67;103504.00;5114601;27;47474;-76
2022/01/17 09:38:24;;;;;;;;;38.00;31.00;;;;;9.39;72.54;103497.75;5109008;27;45520;-75
2022/01/17 09:40:50;;;;;;;;;39.75;29.00;;;;;9.41;72.27;103509.28;5110525;27;54701;-75
2022/01/17 09:43:15;;;;;;;;;45.50;37.00;;;;;9.49;72.41;103516.75;5116181;27;45875;-76
2022/01/17 09:45:41;;;;;;;;;40.00;30.50;;;;;9.52;71.62;103516.91;5096015;27;55115;-76
2022/01/17 09:48:08;;;;;;;;;36.00;33.25;;;;;9.52;72.12;103509.91;5109412;27;60618;-76
2022/01/17 09:50:45;;;;;;;;;34.50;30.25;;;;;9.52;72.15;103506.34;5109872;27;45426;-74
2022/01/17 09:53:10;;;;;;;;;41.25;35.25;;;;;9.52;71.83;103507.25;5116976;27;45441;-75
2022/01/17 09:55:36;;;;;;;;;52.75;37.50;;;;;9.53;72.07;103511.72;5096568;27;47085;-75
2022/01/17 09:58:07;;;;;;;;;40.50;32.75;;;;;9.54;72.11;103515.28;5075813;27;60226;-75
2022/01/17 10:00:35;;;;;;;;;41.25;34.75;;;;;9.64;72.14;103525.53;5113915;27;45455;-75
2022/01/17 10:03:05;;;;;;;;;50.25;34.25;;;;;9.69;71.80;103532.91;5114820;27;45349;-75
2022/01/17 10:05:31;;;;;;;;;43.50;31.75;;;;;9.71;71.55;103527.72;5108688;27;47408;-76
2022/01/17 10:08:04;;;;;;;;;35.50;30.50;;;;;9.75;71.63;103540.28;5095258;27;53384;-76
2022/01/17 10:10:50;;;;;;;;;37.75;34.25;;;;;9.77;71.57;103535.06;5112395;27;45639;-75
2022/01/17 10:13:18;;;;;;;;;37.50;35.75;;;;;9.81;71.50;103543.25;5114854;27;45507;-76
2022/01/17 10:16:06;;;;;;;;;39.25;34.75;;;;;9.81;71.35;103537.97;5111235;27;46994;-77
2022/01/17 10:18:39;;;;;;;;;38.25;31.50;;;;;9.81;71.61;103526.53;5096142;27;45473;-75
2022/01/17 10:21:10;;;;;;;;;42.00;36.25;;;;;9.83;71.27;103538.97;5111332;27;45460;-76
2022/01/17 10:27:22;;;;;;;;;43.75;36.25;;;;;9.86;71.40;103532.97;5096045;27;46397;-77
2022/01/17 10:37:09;;;;;;;;;36.75;31.50;;;;;9.91;71.34;103545.59;5111122;27;45453;-76
2022/01/17 10:39:37;;;;;;;;;33.75;31.00;;;;;9.91;71.06;103544.69;5108412;27;58518;-76
2022/01/17 10:42:25;;;;;;;;;42.75;36.50;;;;;9.93;71.37;103553.59;5096268;27;45443;-76
2022/01/17 10:44:51;;;;;;;;;42.75;32.50;;;;;9.93;71.31;103559.78;5114750;27;45278;-77
2022/01/17 10:47:24;;;;;;;;;32.00;29.00;;;;;9.99;71.13;103553.94;5095352;27;45732;-76
2022/01/17 10:49:54;;;;;;;;;41.50;35.25;;;;;10.01;71.28;103538.19;5108839;27;45289;-77
2022/01/17 10:52:31;;;;;;;;;52.00;39.50;;;;;10.03;70.92;103537.47;5122727;22;45327;-77
2022/01/17 10:54:57;;;;;;;;;44.50;35.00;;;;;10.09;70.89;103536.91;5131708;22;45132;-77
2022/01/17 10:57:23;;;;;;;;;38.00;29.25;;;;;10.06;71.22;103499.75;5096375;27;47904;-78
2022/01/17 10:59:51;;;;;;;;;44.00;32.75;;;;;10.13;70.99;103496.66;5101846;22;45636;-77
2022/01/17 11:02:17;;;;;;;;;44.50;32.75;;;;;10.13;70.64;103488.75;5056329;28;45496;-75
2022/01/17 11:04:42;;;;;;;;;38.75;35.00;;;;;10.15;70.91;103495.00;5050336;28;46559;-75
2022/01/17 11:07:08;;;;;;;;;46.75;34.25;;;;;10.18;71.03;103503.09;5067026;28;62605;-75
2022/01/17 11:09:40;;;;;;;;;38.25;33.00;;;;;10.27;70.84;103502.72;5056751;28;45513;-75
2022/01/17 11:12:13;;;;;;;;;50.00;40.25;;;;;10.37;70.62;103502.41;5073294;28;46061;-76
2022/01/17 11:14:39;;;;;;;;;42.75;37.75;;;;;10.52;70.56;103508.53;5073669;28;45565;-75
2022/01/17 11:17:32;;;;;;;;;46.25;38.25;;;;;10.58;70.34;103514.13;5074532;28;47247;-76
2022/01/17 11:20:07;;;;;;;;;44.50;36.00;;;;;10.64;70.09;103511.81;5072989;28;45844;-77
2022/01/17 11:22:34;;;;;;;;;46.75;35.75;;;;;10.64;70.05;103514.47;5044327;28;45611;-77
2022/01/17 11:24:59;;;;;;;;;44.25;33.50;;;;;10.54;69.92;103504.22;5068272;28;45998;-75
2022/01/17 11:27:25;;;;;;;;;43.25;38.25;;;;;10.58;70.08;103508.84;5076314;28;47593;-75
2022/01/17 11:29:50;;;;;;;;;40.50;32.00;;;;;10.52;69.84;103502.34;5076505;28;45481;-75
2022/01/17 11:32:16;;;;;;;;;43.25;33.75;;;;;10.58;70.09;103502.66;5076745;28;45561;-76
2022/01/17 11:34:41;;;;;;;;;32.50;30.25;;;;;10.64;69.96;103495.06;5076484;28;45430;-75
2022/01/17 11:37:09;;;;;;;;;42.00;36.00;;;;;10.68;69.87;103483.84;5074358;28;49126;-76
2022/01/17 11:39:55;;;;;;;;;43.25;32.50;;;;;10.69;69.98;103489.19;5013869;28;45712;-75